Time;durP1;ratioP1;P1;durP2;ratioP2;P2;SDS_P1;SDS_P2;PMS_P1;PMS_P2;Temp;Humidity;BMP_temperature;BMP_pressure;BME280_temperature;BME280_humidity;BME280_pressure;Samples;Min_cycle;Max_cycle;Signal;HPM_P1;HPM_P2
2020/12/27 00:00:08;;;;;;;47.83;31.92;;;;;;;;;;5137562;28;20242;-54
2020/12/27 00:03:09;;;;;;;43.53;29.15;;;;;;;;;;5137040;28;20251;-46
2020/12/27 00:05:36;;;;;;;6.93;4.70;;;;;;;;;;5136760;28;20210;-47
2020/12/27 00:08:03;;;;;;;6.70;4.05;;;;;;;;;;5136609;28;20180;-54
2020/12/27 00:10:30;;;;;;;5.53;4.05;;;;;;;;;;5136816;28;20207;-49
2020/12/27 00:12:57;;;;;;;8.48;2.67;;;;;;;;;;5136786;28;20308;-52
2020/12/27 00:15:25;;;;;;;27.67;18.58;;;;;;;;;;5136962;28;20510;-54
2020/12/27 00:17:51;;;;;;;25.58;17.75;;;;;;;;;;5137219;28;20207;-58
2020/12/27 00:20:18;;;;;;;29.38;19.75;;;;;;;;;;5137328;28;20206;-58
2020/12/27 00:23:13;;;;;;;8.15;5.72;;;;;;;;;;5137480;28;20190;-49
2020/12/27 00:25:41;;;;;;;6.32;3.90;;;;;;;;;;5135127;28;20246;-54
2020/12/27 00:28:07;;;;;;;4.45;2.45;;;;;;;;;;5126285;28;20207;-55
2020/12/27 00:30:35;;;;;;;5.20;2.75;;;;;;;;;;5124568;28;20230;-50
2020/12/27 00:33:02;;;;;;;5.63;3.13;;;;;;;;;;5136315;28;20214;-56
2020/12/27 00:35:28;;;;;;;4.75;2.95;;;;;;;;;;5122197;28;20192;-52
2020/12/27 00:38:14;;;;;;;9.35;5.25;;;;;;;;;;5103501;28;20465;-52
2020/12/27 00:40:41;;;;;;;4.40;2.17;;;;;;;;;;5115396;28;20212;-55
2020/12/27 00:43:08;;;;;;;22.75;13.77;;;;;;;;;;5115924;28;20192;-51
2020/12/27 00:45:56;;;;;;;87.35;56.50;;;;;;;;;;5115693;28;20226;-54
2020/12/27 00:48:24;;;;;;;22.92;14.65;;;;;;;;;;5131030;28;20280;-55
2020/12/27 00:50:51;;;;;;;34.25;22.30;;;;;;;;;;5136820;28;20207;-55
2020/12/27 00:53:17;;;;;;;9.15;5.40;;;;;;;;;;5136169;28;20595;-51
2020/12/27 00:55:44;;;;;;;42.05;27.33;;;;;;;;;;5136151;28;20207;-54
2020/12/27 00:58:17;;;;;;;46.75;29.55;;;;;;;;;;5136283;28;20195;-55
2020/12/27 01:00:44;;;;;;;14.77;9.43;;;;;;;;;;5136275;28;20206;-58
2020/12/27 01:03:11;;;;;;;16.77;11.63;;;;;;;;;;5136068;28;20206;-58
2020/12/27 01:05:40;;;;;;;11.10;6.57;;;;;;;;;;5136491;28;20589;-52
2020/12/27 01:08:06;;;;;;;24.15;14.93;;;;;;;;;;5136598;28;20195;-58
2020/12/27 01:10:33;;;;;;;17.73;10.82;;;;;;;;;;5136896;28;20189;-50
2020/12/27 01:13:13;;;;;;;9.07;3.53;;;;;;;;;;5136528;28;20199;-56
2020/12/27 01:15:40;;;;;;;4.30;2.50;;;;;;;;;;5118471;28;20233;-53
2020/12/27 01:18:07;;;;;;;3.17;2.25;;;;;;;;;;5136444;28;20194;-47
2020/12/27 01:20:34;;;;;;;2.10;1.05;;;;;;;;;;5136402;28;20206;-53
2020/12/27 01:23:03;;;;;;;5.30;2.15;;;;;;;;;;5135527;28;20234;-57
2020/12/27 01:25:30;;;;;;;4.30;1.95;;;;;;;;;;5136949;28;20214;-55
2020/12/27 01:27:57;;;;;;;7.20;3.60;;;;;;;;;;5137007;28;20203;-51
2020/12/27 01:30:23;;;;;;;4.90;2.50;;;;;;;;;;5136957;28;20289;-56
2020/12/27 01:33:02;;;;;;;4.45;1.55;;;;;;;;;;5136005;28;20213;-56
2020/12/27 01:35:29;;;;;;;5.53;3.08;;;;;;;;;;5136399;28;20218;-49
2020/12/27 01:37:55;;;;;;;7.50;4.32;;;;;;;;;;5135631;28;20260;-53
2020/12/27 01:40:23;;;;;;;4.65;2.20;;;;;;;;;;5139643;28;20214;-50
2020/12/27 01:42:53;;;;;;;10.55;5.15;;;;;;;;;;5137587;28;20191;-53
2020/12/27 01:45:23;;;;;;;103.72;61.22;;;;;;;;;;5136994;28;20192;-46
2020/12/27 01:47:51;;;;;;;39.30;24.63;;;;;;;;;;5127030;28;20208;-54
2020/12/27 01:50:18;;;;;;;26.75;16.35;;;;;;;;;;5142185;27;20208;-50
2020/12/27 01:52:50;;;;;;;36.97;21.92;;;;;;;;;;5132364;28;20222;-55
2020/12/27 01:55:17;;;;;;;20.45;12.40;;;;;;;;;;5144725;27;20234;-57
2020/12/27 01:57:57;;;;;;;18.10;12.27;;;;;;;;;;5145274;27;20199;-53
2020/12/27 02:00:25;;;;;;;21.00;13.25;;;;;;;;;;5155114;27;20224;-55
2020/12/27 02:02:52;;;;;;;7.07;4.15;;;;;;;;;;5151447;27;20210;-57
2020/12/27 02:05:18;;;;;;;12.90;7.93;;;;;;;;;;5139661;28;20222;-51
2020/12/27 02:07:46;;;;;;;10.40;7.30;;;;;;;;;;5143203;27;20191;-53
2020/12/27 02:10:14;;;;;;;41.88;25.02;;;;;;;;;;5141028;28;20188;-56
2020/12/27 02:12:41;;;;;;;3.58;1.83;;;;;;;;;;5139864;28;20226;-59
2020/12/27 02:15:43;;;;;;;6.00;2.50;;;;;;;;;;5139852;28;20232;-56
2020/12/27 02:18:11;;;;;;;2.80;1.63;;;;;;;;;;5139712;28;20207;-51
2020/12/27 02:20:38;;;;;;;2.60;1.45;;;;;;;;;;5139200;28;20362;-55
2020/12/27 02:23:16;;;;;;;3.83;1.83;;;;;;;;;;5139208;28;20227;-54
2020/12/27 02:25:44;;;;;;;3.47;1.05;;;;;;;;;;5139117;28;20232;-54
2020/12/27 02:28:11;;;;;;;2.85;1.60;;;;;;;;;;5138848;28;20211;-58
2020/12/27 02:30:38;;;;;;;5.03;2.10;;;;;;;;;;5139357;28;20240;-54
2020/12/27 02:33:05;;;;;;;52.13;32.83;;;;;;;;;;5139016;28;20201;-51
2020/12/27 02:35:34;;;;;;;23.80;15.05;;;;;;;;;;5138385;28;20252;-51
2020/12/27 02:38:01;;;;;;;63.00;36.83;;;;;;;;;;5138876;28;20234;-51
2020/12/27 02:40:28;;;;;;;54.42;31.25;;;;;;;;;;5138876;28;20207;-52
2020/12/27 02:42:58;;;;;;;10.05;6.05;;;;;;;;;;5138477;28;20208;-53
2020/12/27 02:45:25;;;;;;;20.02;13.15;;;;;;;;;;5138805;28;20191;-54
2020/12/27 02:47:52;;;;;;;33.33;18.65;;;;;;;;;;5138515;28;20204;-52
2020/12/27 02:50:19;;;;;;;12.55;8.30;;;;;;;;;;5137552;28;20213;-57
2020/12/27 02:52:46;;;;;;;3.90;1.70;;;;;;;;;;5137800;28;20203;-57
2020/12/27 02:55:12;;;;;;;2.60;1.00;;;;;;;;;;5137836;28;20231;-57
2020/12/27 02:57:39;;;;;;;4.25;1.52;;;;;;;;;;5137962;28;20207;-49
2020/12/27 03:00:07;;;;;;;3.10;1.30;;;;;;;;;;5137908;28;20234;-58
2020/12/27 03:02:43;;;;;;;2.53;1.20;;;;;;;;;;5138169;28;20212;-56
2020/12/27 03:05:10;;;;;;;2.13;1.10;;;;;;;;;;5138480;28;20226;-54
2020/12/27 03:07:37;;;;;;;15.35;9.20;;;;;;;;;;5138427;28;20207;-54
2020/12/27 03:10:18;;;;;;;31.65;19.33;;;;;;;;;;5138139;28;20229;-47
2020/12/27 03:12:47;;;;;;;18.30;10.13;;;;;;;;;;5138267;28;20228;-49
2020/12/27 03:15:18;;;;;;;17.25;9.88;;;;;;;;;;5139325;28;20219;-48
2020/12/27 03:17:57;;;;;;;10.32;6.78;;;;;;;;;;5139110;28;20208;-53
2020/12/27 03:20:23;;;;;;;2.78;1.48;;;;;;;;;;5138330;28;20214;-52
2020/12/27 03:22:50;;;;;;;14.77;8.70;;;;;;;;;;5139083;28;20303;-47
2020/12/27 03:25:28;;;;;;;4.75;2.58;;;;;;;;;;5137931;28;20211;-52
2020/12/27 03:27:55;;;;;;;13.60;6.88;;;;;;;;;;5150261;27;20306;-52
2020/12/27 03:30:23;;;;;;;7.07;4.40;;;;;;;;;;5159418;27;20233;-49
2020/12/27 03:33:14;;;;;;;5.82;2.42;;;;;;;;;;5159369;27;20213;-50
2020/12/27 03:35:42;;;;;;;16.38;9.15;;;;;;;;;;5159525;27;20295;-47
2020/12/27 03:38:09;;;;;;;5.80;1.80;;;;;;;;;;5159322;27;20198;-51
2020/12/27 03:40:36;;;;;;;5.72;2.45;;;;;;;;;;5157840;27;20207;-56
2020/12/27 03:43:03;;;;;;;2.83;1.30;;;;;;;;;;5158659;27;20203;-57
2020/12/27 03:45:46;;;;;;;4.28;2.63;;;;;;;;;;5158329;27;20199;-52
2020/12/27 03:48:13;;;;;;;2.67;0.90;;;;;;;;;;5158749;27;20214;-47
2020/12/27 03:50:40;;;;;;;3.30;1.05;;;;;;;;;;5158465;27;20546;-54
2020/12/27 03:53:13;;;;;;;2.47;1.08;;;;;;;;;;5159099;27;20240;-54
2020/12/27 03:55:40;;;;;;;2.33;1.02;;;;;;;;;;5158357;27;20279;-51
2020/12/27 03:58:07;;;;;;;2.47;1.13;;;;;;;;;;5159139;27;20212;-53
2020/12/27 04:00:39;;;;;;;4.13;1.10;;;;;;;;;;5159412;27;20178;-56
2020/12/27 04:03:07;;;;;;;2.05;0.80;;;;;;;;;;5159064;27;20202;-49
2020/12/27 04:05:33;;;;;;;3.25;1.67;;;;;;;;;;5158298;27;20592;-54
2020/12/27 04:08:10;;;;;;;2.40;1.30;;;;;;;;;;5158285;27;20202;-48
2020/12/27 04:10:36;;;;;;;1.85;0.73;;;;;;;;;;5157965;27;20612;-56
2020/12/27 04:13:03;;;;;;;1.70;0.80;;;;;;;;;;5158564;27;20189;-53
2020/12/27 04:15:30;;;;;;;2.45;0.80;;;;;;;;;;5157211;27;20632;-54
2020/12/27 04:17:57;;;;;;;1.98;1.10;;;;;;;;;;5157762;27;20205;-49
2020/12/27 04:20:25;;;;;;;1.80;0.82;;;;;;;;;;5157483;27;20213;-55
2020/12/27 04:22:52;;;;;;;4.45;2.17;;;;;;;;;;5157554;27;20286;-52
2020/12/27 04:25:19;;;;;;;2.58;1.13;;;;;;;;;;5157943;27;20203;-53
2020/12/27 04:28:00;;;;;;;2.22;1.10;;;;;;;;;;5157681;27;20225;-43
2020/12/27 04:30:27;;;;;;;2.63;1.25;;;;;;;;;;5157537;27;20232;-53
2020/12/27 04:32:54;;;;;;;1.92;1.00;;;;;;;;;;5157860;27;20216;-55
2020/12/27 04:35:33;;;;;;;6.50;3.50;;;;;;;;;;5157337;27;20361;-57
2020/12/27 04:37:59;;;;;;;2.53;1.15;;;;;;;;;;5157290;27;20205;-49
2020/12/27 04:40:26;;;;;;;4.32;1.73;;;;;;;;;;5157029;27;20248;-55
2020/12/27 04:43:17;;;;;;;6.13;3.05;;;;;;;;;;5156988;27;20194;-59
2020/12/27 04:45:44;;;;;;;2.33;1.05;;;;;;;;;;5156961;27;20196;-46
2020/12/27 04:48:12;;;;;;;5.80;2.67;;;;;;;;;;5157642;27;20248;-52
2020/12/27 04:50:39;;;;;;;2.22;0.88;;;;;;;;;;5157327;27;20202;-54
2020/12/27 04:53:06;;;;;;;5.57;2.13;;;;;;;;;;5157705;27;20225;-50
2020/12/27 04:55:33;;;;;;;6.63;3.35;;;;;;;;;;5156699;27;20270;-54
2020/12/27 04:58:02;;;;;;;2.47;1.15;;;;;;;;;;5157462;27;20191;-58
2020/12/27 05:00:29;;;;;;;2.58;1.45;;;;;;;;;;5157400;27;20213;-53
2020/12/27 05:02:55;;;;;;;3.60;1.35;;;;;;;;;;5157445;27;20205;-51
2020/12/27 05:05:23;;;;;;;3.53;2.20;;;;;;;;;;5157248;27;20197;-49
2020/12/27 05:07:50;;;;;;;2.72;1.48;;;;;;;;;;5156775;27;20232;-54
2020/12/27 05:10:17;;;;;;;3.75;1.60;;;;;;;;;;5157468;27;20186;-50
2020/12/27 05:12:47;;;;;;;7.05;1.15;;;;;;;;;;5157691;27;20234;-55
2020/12/27 05:15:14;;;;;;;6.35;3.20;;;;;;;;;;5157192;27;20231;-52
2020/12/27 05:17:40;;;;;;;4.18;2.00;;;;;;;;;;5158133;27;20197;-50
2020/12/27 05:20:09;;;;;;;4.82;2.00;;;;;;;;;;5157799;27;20194;-50
2020/12/27 05:22:36;;;;;;;4.88;2.05;;;;;;;;;;5156957;27;20207;-56
2020/12/27 05:25:05;;;;;;;2.30;1.27;;;;;;;;;;5157785;27;20218;-49
2020/12/27 05:27:32;;;;;;;3.22;1.73;;;;;;;;;;5156030;27;20245;-53
2020/12/27 05:30:01;;;;;;;2.25;1.00;;;;;;;;;;5157012;28;20192;-51
2020/12/27 05:32:30;;;;;;;4.40;2.13;;;;;;;;;;5157724;28;20211;-50
2020/12/27 05:34:58;;;;;;;2.45;1.05;;;;;;;;;;5156579;28;20244;-55
2020/12/27 05:37:26;;;;;;;1.77;0.70;;;;;;;;;;5157168;28;20200;-50
2020/12/27 05:40:07;;;;;;;3.40;1.63;;;;;;;;;;5157464;28;20201;-51
2020/12/27 05:42:35;;;;;;;2.60;1.30;;;;;;;;;;5156921;28;20311;-56
2020/12/27 05:45:15;;;;;;;2.22;1.20;;;;;;;;;;5157053;28;20250;-57
2020/12/27 05:48:01;;;;;;;3.72;2.13;;;;;;;;;;5157016;28;20601;-54
2020/12/27 05:50:31;;;;;;;4.28;2.85;;;;;;;;;;5155776;28;20214;-54
2020/12/27 05:53:00;;;;;;;5.68;3.55;;;;;;;;;;5157868;28;20199;-58
2020/12/27 05:55:31;;;;;;;4.60;1.30;;;;;;;;;;5157608;28;20229;-56
2020/12/27 05:57:57;;;;;;;2.75;1.80;;;;;;;;;;5141694;28;20220;-49
2020/12/27 06:00:25;;;;;;;4.43;1.95;;;;;;;;;;5135161;28;20208;-57
2020/12/27 06:02:59;;;;;;;1.95;1.10;;;;;;;;;;5135905;28;20200;-60
2020/12/27 06:05:46;;;;;;;4.22;1.88;;;;;;;;;;5136347;28;20197;-52
2020/12/27 06:08:34;;;;;;;3.20;1.67;;;;;;;;;;5102434;28;20215;-49
2020/12/27 06:11:10;;;;;;;4.63;2.15;;;;;;;;;;5136418;28;20208;-55
2020/12/27 06:14:02;;;;;;;4.90;1.48;;;;;;;;;;5136753;28;20187;-47
2020/12/27 06:16:35;;;;;;;2.00;0.82;;;;;;;;;;5135673;28;20219;-54
2020/12/27 06:19:04;;;;;;;3.38;2.05;;;;;;;;;;5136157;28;20203;-50
2020/12/27 06:21:36;;;;;;;2.67;1.35;;;;;;;;;;5136360;28;20206;-57
2020/12/27 06:24:03;;;;;;;3.05;1.65;;;;;;;;;;5135485;28;20255;-48
2020/12/27 06:26:32;;;;;;;2.25;0.98;;;;;;;;;;5139232;28;20213;-61
2020/12/27 06:28:59;;;;;;;2.70;1.25;;;;;;;;;;5140218;28;20218;-54
2020/12/27 06:31:26;;;;;;;3.35;1.58;;;;;;;;;;5139829;28;20275;-49
2020/12/27 06:33:53;;;;;;;8.13;4.30;;;;;;;;;;5126739;28;20235;-51
2020/12/27 06:39:24;;;;;;;3.38;1.48;;;;;;;;;;5119959;28;20799;-50
2020/12/27 06:42:15;;;;;;;2.17;1.10;;;;;;;;;;5120204;28;20211;-56
2020/12/27 06:44:44;;;;;;;3.20;1.88;;;;;;;;;;5104907;28;20222;-60
2020/12/27 06:47:12;;;;;;;3.45;1.40;;;;;;;;;;5120323;28;20317;-51
2020/12/27 06:49:39;;;;;;;6.43;3.50;;;;;;;;;;5119450;28;20219;-56
2020/12/27 06:52:21;;;;;;;9.80;5.70;;;;;;;;;;5118894;28;20203;-54
2020/12/27 06:54:49;;;;;;;6.50;3.20;;;;;;;;;;5118307;28;20228;-55
2020/12/27 06:57:38;;;;;;;3.92;1.75;;;;;;;;;;5118037;28;20246;-54
2020/12/27 07:00:21;;;;;;;3.60;1.70;;;;;;;;;;5118622;28;20196;-53
2020/12/27 07:02:48;;;;;;;5.82;2.85;;;;;;;;;;5118210;28;20218;-49
2020/12/27 07:05:29;;;;;;;2.60;1.23;;;;;;;;;;5118123;28;20176;-53
2020/12/27 07:08:02;;;;;;;3.75;2.33;;;;;;;;;;5118104;28;20238;-51
2020/12/27 07:10:30;;;;;;;2.20;1.00;;;;;;;;;;5119252;28;20268;-53
2020/12/27 07:13:02;;;;;;;4.20;1.77;;;;;;;;;;5118670;28;20192;-52
2020/12/27 07:15:30;;;;;;;2.40;1.30;;;;;;;;;;5117997;28;20371;-49
2020/12/27 07:17:57;;;;;;;1.80;0.90;;;;;;;;;;5118447;28;20208;-52
2020/12/27 07:20:31;;;;;;;2.25;0.80;;;;;;;;;;5119396;28;20211;-56
2020/12/27 07:22:58;;;;;;;2.67;1.45;;;;;;;;;;5118495;28;20203;-47
2020/12/27 07:25:25;;;;;;;4.38;1.98;;;;;;;;;;5119163;28;20203;-51
2020/12/27 07:28:13;;;;;;;2.08;0.93;;;;;;;;;;5118803;28;20204;-54
2020/12/27 07:30:40;;;;;;;2.75;1.02;;;;;;;;;;5118216;28;20206;-53
2020/12/27 07:33:08;;;;;;;3.60;1.52;;;;;;;;;;5118078;28;20254;-52
2020/12/27 07:35:35;;;;;;;2.60;1.40;;;;;;;;;;5118485;28;20222;-56
2020/12/27 07:38:03;;;;;;;1.77;1.05;;;;;;;;;;5117548;28;20191;-59
2020/12/27 07:40:33;;;;;;;2.08;1.00;;;;;;;;;;5119027;28;20200;-55
2020/12/27 07:43:12;;;;;;;1.60;0.70;;;;;;;;;;5119173;28;20214;-55
2020/12/27 07:45:38;;;;;;;1.92;1.02;;;;;;;;;;5118624;28;20198;-56
2020/12/27 07:48:06;;;;;;;2.25;0.90;;;;;;;;;;5122202;28;20202;-52
2020/12/27 07:50:54;;;;;;;1.65;0.80;;;;;;;;;;5117671;28;20202;-55
2020/12/27 07:53:20;;;;;;;1.95;0.90;;;;;;;;;;5118225;28;20200;-53
2020/12/27 07:55:48;;;;;;;4.80;0.80;;;;;;;;;;5117390;28;20215;-48
2020/12/27 07:58:28;;;;;;;1.80;0.60;;;;;;;;;;5117885;28;20355;-46
2020/12/27 08:00:55;;;;;;;2.72;1.27;;;;;;;;;;5117361;28;20191;-57
2020/12/27 08:03:23;;;;;;;2.20;1.10;;;;;;;;;;5117605;28;20267;-50
2020/12/27 08:05:59;;;;;;;2.10;0.80;;;;;;;;;;5117526;28;20192;-54
2020/12/27 08:08:27;;;;;;;2.00;1.00;;;;;;;;;;5116961;28;20208;-55
2020/12/27 08:10:58;;;;;;;1.63;0.68;;;;;;;;;;5125744;28;20190;-54
2020/12/27 08:13:28;;;;;;;1.50;0.70;;;;;;;;;;5138507;28;20218;-54
2020/12/27 08:15:55;;;;;;;1.50;0.70;;;;;;;;;;5138171;28;20268;-56
2020/12/27 08:18:23;;;;;;;1.75;0.70;;;;;;;;;;5122428;28;20228;-50
2020/12/27 08:20:51;;;;;;;2.03;0.88;;;;;;;;;;5117824;28;20191;-55
2020/12/27 08:23:18;;;;;;;1.60;0.82;;;;;;;;;;5117086;28;20305;-50
2020/12/27 08:25:45;;;;;;;2.08;0.80;;;;;;;;;;5118024;28;20212;-53
2020/12/27 08:28:17;;;;;;;1.88;0.70;;;;;;;;;;5117418;28;20211;-58
2020/12/27 08:30:45;;;;;;;2.10;0.80;;;;;;;;;;5117035;28;20211;-54
2020/12/27 08:33:13;;;;;;;3.60;0.95;;;;;;;;;;5117158;28;20323;-59
2020/12/27 08:35:42;;;;;;;1.77;0.60;;;;;;;;;;5117031;28;20234;-58
2020/12/27 08:38:30;;;;;;;2.20;0.82;;;;;;;;;;5116414;28;20200;-49
2020/12/27 08:41:02;;;;;;;1.80;0.80;;;;;;;;;;5112624;28;20208;-51
2020/12/27 08:43:35;;;;;;;1.88;0.82;;;;;;;;;;5121548;28;20192;-55
2020/12/27 08:46:11;;;;;;;3.22;0.90;;;;;;;;;;5134857;27;20199;-51
2020/12/27 08:48:53;;;;;;;1.60;0.70;;;;;;;;;;5128647;27;20186;-56
2020/12/27 08:51:25;;;;;;;1.70;0.80;;;;;;;;;;5129486;28;20202;-55
2020/12/27 08:57:00;;;;;;;2.03;0.80;;;;;;;;;;5128461;28;20221;-53
2020/12/27 08:59:27;;;;;;;2.03;0.65;;;;;;;;;;5133978;27;20208;-56
2020/12/27 09:02:18;;;;;;;1.60;0.60;;;;;;;;;;5116707;28;20193;-50
2020/12/27 09:04:45;;;;;;;1.63;0.60;;;;;;;;;;5106893;27;20365;-56
2020/12/27 09:10:20;;;;;;;1.90;0.90;;;;;;;;;;5130980;28;20175;-54
2020/12/27 09:12:56;;;;;;;2.67;1.10;;;;;;;;;;5127579;27;20195;-60
2020/12/27 09:15:26;;;;;;;1.70;0.70;;;;;;;;;;5123543;28;20219;-53
2020/12/27 09:17:57;;;;;;;2.35;1.10;;;;;;;;;;5132381;28;20199;-50
2020/12/27 09:20:27;;;;;;;3.45;2.67;;;;;;;;;;5132349;28;20314;-53
2020/12/27 09:23:02;;;;;;;1.98;0.70;;;;;;;;;;5125550;28;20204;-55
2020/12/27 09:25:30;;;;;;;1.98;0.80;;;;;;;;;;5120616;28;20200;-55
2020/12/27 09:27:57;;;;;;;1.80;0.80;;;;;;;;;;5158113;27;20621;-51
2020/12/27 09:30:26;;;;;;;2.63;0.80;;;;;;;;;;5142662;28;20217;-57
2020/12/27 09:33:03;;;;;;;2.13;0.60;;;;;;;;;;5154834;28;20202;-58
2020/12/27 09:35:36;;;;;;;1.50;0.68;;;;;;;;;;5151945;28;20248;-56
2020/12/27 09:38:20;;;;;;;3.67;0.82;;;;;;;;;;5149071;28;20203;-60
2020/12/27 09:40:48;;;;;;;3.25;0.77;;;;;;;;;;5136295;28;20211;-59
2020/12/27 09:43:44;;;;;;;1.85;0.80;;;;;;;;;;5133240;28;20210;-55
2020/12/27 09:46:11;;;;;;;2.40;0.80;;;;;;;;;;5132407;28;20314;-51
2020/12/27 09:48:39;;;;;;;3.58;0.70;;;;;;;;;;5143101;28;20194;-52
2020/12/27 09:51:16;;;;;;;2.50;0.90;;;;;;;;;;5139708;28;20199;-54
2020/12/27 09:53:43;;;;;;;1.70;0.80;;;;;;;;;;5132852;28;20214;-52
2020/12/27 09:56:11;;;;;;;2.00;0.88;;;;;;;;;;5136781;28;20323;-57
2020/12/27 09:59:00;;;;;;;1.70;0.80;;;;;;;;;;5132228;28;20192;-54
2020/12/27 10:01:28;;;;;;;2.00;0.90;;;;;;;;;;5153468;27;20195;-50
2020/12/27 10:03:57;;;;;;;2.42;0.75;;;;;;;;;;5140442;28;20206;-56
2020/12/27 10:06:40;;;;;;;2.47;1.10;;;;;;;;;;5149155;27;20190;-56
2020/12/27 10:09:07;;;;;;;2.00;0.70;;;;;;;;;;5139915;28;20243;-55
2020/12/27 10:11:35;;;;;;;2.25;0.90;;;;;;;;;;5139830;28;20192;-54
2020/12/27 10:14:16;;;;;;;2.25;0.93;;;;;;;;;;5130498;28;20200;-56
2020/12/27 10:16:43;;;;;;;2.03;0.80;;;;;;;;;;5119594;28;20208;-51
2020/12/27 10:19:13;;;;;;;2.03;0.80;;;;;;;;;;5119730;28;20188;-55
2020/12/27 10:21:50;;;;;;;1.58;0.68;;;;;;;;;;5119672;28;20192;-53
2020/12/27 10:24:17;;;;;;;1.90;0.68;;;;;;;;;;5138281;28;20210;-48
2020/12/27 10:26:49;;;;;;;1.95;0.70;;;;;;;;;;5126604;28;20211;-51
2020/12/27 10:29:25;;;;;;;2.00;1.00;;;;;;;;;;5128894;28;20560;-54
2020/12/27 10:31:52;;;;;;;2.70;0.85;;;;;;;;;;5142650;27;20236;-54
2020/12/27 10:34:19;;;;;;;2.53;0.90;;;;;;;;;;5151080;27;20226;-56
2020/12/27 10:36:54;;;;;;;1.95;0.95;;;;;;;;;;5148677;27;20241;-50
2020/12/27 10:39:21;;;;;;;3.28;0.68;;;;;;;;;;5156998;27;20186;-46
2020/12/27 10:41:50;;;;;;;2.20;0.85;;;;;;;;;;5159126;27;20194;-56
2020/12/27 10:44:28;;;;;;;2.00;1.00;;;;;;;;;;5138576;28;20207;-55
2020/12/27 10:46:55;;;;;;;2.15;0.90;;;;;;;;;;5142561;27;20203;-56
2020/12/27 10:49:22;;;;;;;2.40;0.82;;;;;;;;;;5143367;27;20252;-55
2020/12/27 10:52:02;;;;;;;3.50;0.90;;;;;;;;;;5147210;27;20216;-56
2020/12/27 10:54:34;;;;;;;1.98;0.90;;;;;;;;;;5159859;27;20238;-54
2020/12/27 10:57:02;;;;;;;1.98;1.00;;;;;;;;;;5165761;27;20202;-58
2020/12/27 10:59:52;;;;;;;2.83;0.70;;;;;;;;;;5159168;27;20202;-59
2020/12/27 11:02:19;;;;;;;1.73;0.70;;;;;;;;;;5149217;27;20214;-50
2020/12/27 11:04:45;;;;;;;1.50;0.70;;;;;;;;;;5158501;27;20286;-55
2020/12/27 11:07:23;;;;;;;1.50;0.60;;;;;;;;;;5153607;27;20292;-55
2020/12/27 11:09:50;;;;;;;1.88;0.80;;;;;;;;;;5147862;27;20246;-58
2020/12/27 11:12:19;;;;;;;2.80;0.90;;;;;;;;;;5151341;27;20249;-52
2020/12/27 11:14:57;;;;;;;3.92;0.90;;;;;;;;;;5132878;28;20230;-58
2020/12/27 11:17:25;;;;;;;2.05;1.00;;;;;;;;;;5147825;27;20213;-57
2020/12/27 11:19:53;;;;;;;1.95;0.82;;;;;;;;;;5151812;27;20194;-59
2020/12/27 11:22:40;;;;;;;1.55;0.80;;;;;;;;;;5150956;27;20188;-61
2020/12/27 11:25:10;;;;;;;1.60;0.70;;;;;;;;;;5140517;27;20192;-58
2020/12/27 11:27:38;;;;;;;1.80;0.88;;;;;;;;;;5146125;27;20210;-55
2020/12/27 11:30:07;;;;;;;1.80;0.90;;;;;;;;;;5146417;27;20199;-63
2020/12/27 11:32:36;;;;;;;1.92;0.90;;;;;;;;;;5139421;28;20208;-57
2020/12/27 11:35:14;;;;;;;1.90;0.82;;;;;;;;;;5139080;28;20235;-51
2020/12/27 11:37:49;;;;;;;1.50;0.70;;;;;;;;;;5153560;27;20222;-59
2020/12/27 11:40:17;;;;;;;2.00;0.70;;;;;;;;;;5151150;27;20191;-55
2020/12/27 11:42:45;;;;;;;4.53;1.30;;;;;;;;;;5159791;27;20265;-52
2020/12/27 11:45:32;;;;;;;1.80;0.85;;;;;;;;;;5158121;27;20218;-60
2020/12/27 11:48:13;;;;;;;2.08;0.90;;;;;;;;;;5160343;27;20210;-58
2020/12/27 11:53:44;;;;;;;2.28;0.90;;;;;;;;;;5145795;27;20203;-58
2020/12/27 11:56:17;;;;;;;1.70;0.70;;;;;;;;;;5141921;27;20231;-52
2020/12/27 11:58:56;;;;;;;1.50;0.60;;;;;;;;;;5147912;27;20212;-54
2020/12/27 12:01:29;;;;;;;5.93;1.00;;;;;;;;;;5153913;27;20476;-56
2020/12/27 12:03:57;;;;;;;2.47;1.10;;;;;;;;;;5152682;27;20184;-57
2020/12/27 12:07:01;;;;;;;3.22;0.82;;;;;;;;;;5152541;27;20202;-56
2020/12/27 12:09:30;;;;;;;1.85;0.80;;;;;;;;;;5142047;27;20202;-57
2020/12/27 12:11:57;;;;;;;1.83;0.70;;;;;;;;;;5151560;27;20208;-50
2020/12/27 12:14:35;;;;;;;2.08;0.75;;;;;;;;;;5154392;27;20319;-50
2020/12/27 12:17:03;;;;;;;1.92;0.93;;;;;;;;;;5155297;27;20272;-56
2020/12/27 12:19:30;;;;;;;1.70;0.80;;;;;;;;;;5155630;27;20202;-57
2020/12/27 12:22:10;;;;;;;2.35;0.90;;;;;;;;;;5150488;27;20202;-56
2020/12/27 12:24:58;;;;;;;1.60;0.70;;;;;;;;;;5146012;27;20197;-58
2020/12/27 12:27:31;;;;;;;2.67;1.00;;;;;;;;;;5144999;27;20209;-57
2020/12/27 12:29:59;;;;;;;2.13;0.75;;;;;;;;;;5153310;27;21890;-58
2020/12/27 12:32:26;;;;;;;2.13;0.70;;;;;;;;;;5153283;27;20201;-49
2020/12/27 12:35:00;;;;;;;1.90;0.80;;;;;;;;;;5143717;27;20258;-57
2020/12/27 12:37:27;;;;;;;1.90;0.70;;;;;;;;;;5169904;27;20208;-51
2020/12/27 12:39:54;;;;;;;2.03;0.80;;;;;;;;;;5177367;27;20194;-54
2020/12/27 12:42:23;;;;;;;2.67;0.70;;;;;;;;;;5157571;27;20183;-53
2020/12/27 12:44:50;;;;;;;2.30;0.80;;;;;;;;;;5161470;27;20197;-57
2020/12/27 12:47:18;;;;;;;2.08;1.05;;;;;;;;;;5136581;28;20207;-57
2020/12/27 12:49:46;;;;;;;1.88;0.80;;;;;;;;;;5152048;27;20190;-59
2020/12/27 12:52:13;;;;;;;1.80;0.77;;;;;;;;;;5158074;27;20187;-54
2020/12/27 12:54:52;;;;;;;3.55;0.80;;;;;;;;;;5148157;27;20223;-57
2020/12/27 12:57:19;;;;;;;1.70;0.70;;;;;;;;;;5136896;28;20202;-49
2020/12/27 12:59:46;;;;;;;2.13;0.90;;;;;;;;;;5136496;28;20230;-56
2020/12/27 13:02:13;;;;;;;1.80;0.60;;;;;;;;;;5137036;28;20207;-57
2020/12/27 13:04:42;;;;;;;1.77;0.85;;;;;;;;;;5137418;27;20200;-49
2020/12/27 13:07:09;;;;;;;1.70;0.80;;;;;;;;;;5158563;27;20201;-55
2020/12/27 13:12:39;;;;;;;1.70;0.70;;;;;;;;;;5156458;27;20269;-59
2020/12/27 13:15:06;;;;;;;1.50;0.60;;;;;;;;;;5146314;27;20283;-59
2020/12/27 13:18:08;;;;;;;1.60;0.60;;;;;;;;;;5150261;27;20220;-54
2020/12/27 13:20:38;;;;;;;1.55;0.60;;;;;;;;;;5144506;27;20190;-54
2020/12/27 13:23:05;;;;;;;1.90;0.70;;;;;;;;;;5166302;27;20206;-53
2020/12/27 13:25:32;;;;;;;2.03;0.60;;;;;;;;;;5143746;27;20186;-54
2020/12/27 13:28:01;;;;;;;1.40;0.60;;;;;;;;;;5143467;27;20199;-57
2020/12/27 13:30:28;;;;;;;2.78;0.80;;;;;;;;;;5153308;27;20198;-54
2020/12/27 13:32:56;;;;;;;1.88;0.80;;;;;;;;;;5155816;28;20187;-58
2020/12/27 13:35:22;;;;;;;2.80;1.00;;;;;;;;;;5138873;27;20310;-54
2020/12/27 13:37:56;;;;;;;3.28;0.77;;;;;;;;;;5155806;28;20190;-56
2020/12/27 13:40:23;;;;;;;2.20;0.90;;;;;;;;;;5116076;28;20224;-56
2020/12/27 13:42:51;;;;;;;2.90;1.10;;;;;;;;;;5097007;28;20208;-53
2020/12/27 13:45:27;;;;;;;1.60;0.90;;;;;;;;;;5094800;28;20205;-54
2020/12/27 13:47:55;;;;;;;1.60;0.70;;;;;;;;;;5119882;28;20312;-55
2020/12/27 13:50:25;;;;;;;1.60;0.70;;;;;;;;;;5135559;28;20205;-62
2020/12/27 13:52:58;;;;;;;2.40;0.90;;;;;;;;;;5135594;28;20258;-52
2020/12/27 13:55:25;;;;;;;3.15;1.50;;;;;;;;;;5126925;28;20222;-50
2020/12/27 13:57:53;;;;;;;2.08;1.10;;;;;;;;;;5122829;28;20202;-55
2020/12/27 14:00:20;;;;;;;2.30;1.10;;;;;;;;;;5124894;28;20194;-56
2020/12/27 14:02:47;;;;;;;2.55;1.00;;;;;;;;;;5114945;28;20212;-51
2020/12/27 14:05:14;;;;;;;1.95;1.05;;;;;;;;;;5119376;28;20193;-58
2020/12/27 14:07:41;;;;;;;2.90;0.90;;;;;;;;;;5135591;28;20198;-56
2020/12/27 14:10:10;;;;;;;2.50;0.90;;;;;;;;;;5119163;28;20257;-56
2020/12/27 14:12:43;;;;;;;2.60;1.20;;;;;;;;;;5135128;28;20263;-56
2020/12/27 14:15:10;;;;;;;2.63;1.20;;;;;;;;;;5114905;28;20331;-50
2020/12/27 14:17:37;;;;;;;5.75;1.10;;;;;;;;;;5135508;28;20199;-56
2020/12/27 14:20:05;;;;;;;2.95;1.35;;;;;;;;;;5135145;28;20207;-55
2020/12/27 14:22:33;;;;;;;3.97;1.13;;;;;;;;;;5116034;28;20204;-46
2020/12/27 14:25:03;;;;;;;2.00;1.00;;;;;;;;;;5125224;28;20207;-51
2020/12/27 14:27:31;;;;;;;2.00;0.95;;;;;;;;;;5145483;28;20295;-49
2020/12/27 14:29:57;;;;;;;2.22;1.10;;;;;;;;;;5123206;28;20204;-55
2020/12/27 14:32:26;;;;;;;1.77;1.00;;;;;;;;;;5135484;28;20227;-59
2020/12/27 14:34:52;;;;;;;1.73;0.88;;;;;;;;;;5127949;28;20299;-51
2020/12/27 14:37:20;;;;;;;2.00;1.10;;;;;;;;;;5124419;28;20223;-52
2020/12/27 14:39:47;;;;;;;1.90;1.00;;;;;;;;;;5134994;28;20203;-59
2020/12/27 14:42:14;;;;;;;2.40;1.00;;;;;;;;;;5128328;28;20290;-55
2020/12/27 14:44:58;;;;;;;2.55;1.10;;;;;;;;;;5134747;28;20214;-52
2020/12/27 14:47:25;;;;;;;5.28;1.13;;;;;;;;;;5137387;28;20328;-57
2020/12/27 14:49:52;;;;;;;2.47;1.13;;;;;;;;;;5139051;28;20236;-55
2020/12/27 14:52:20;;;;;;;2.50;0.90;;;;;;;;;;5139366;28;20207;-55
2020/12/27 14:54:48;;;;;;;3.08;1.00;;;;;;;;;;5140014;28;20196;-51
2020/12/27 14:57:15;;;;;;;3.00;1.20;;;;;;;;;;5140084;28;20296;-55
2020/12/27 14:59:58;;;;;;;2.70;1.17;;;;;;;;;;5139418;28;20203;-55
2020/12/27 15:02:25;;;;;;;3.20;1.30;;;;;;;;;;5139044;28;20202;-53
2020/12/27 15:04:52;;;;;;;1.92;1.00;;;;;;;;;;5137269;28;20192;-52
2020/12/27 15:07:26;;;;;;;4.50;1.13;;;;;;;;;;5139079;28;20201;-50
2020/12/27 15:09:54;;;;;;;2.05;0.90;;;;;;;;;;5138244;28;20242;-58
2020/12/27 15:12:21;;;;;;;1.75;0.80;;;;;;;;;;5133656;28;20271;-54
2020/12/27 15:14:55;;;;;;;1.50;0.70;;;;;;;;;;5137858;27;20288;-52
2020/12/27 15:17:24;;;;;;;1.90;0.82;;;;;;;;;;5133853;28;20467;-53